Tijeras, New Mexico
Current Conditions -  °F | °C
As of 1:52 AM on Monday 20 Oct 2014 (Local Time) from KABQ Reporting Station
Few Clouds Few Clouds  
Wind Chill: 49°   Ceiling: Unl
Heat Index: 49°   Visibility: 10mi
Dew Point: 39°   Wind: 0mph
Humidity: 69%   Direction: NA
Pressure: 30.17"   Gusts: NA
Location:  35.08°N, 106.39°W
Report Text: KABQ 200752Z 00000KT 10SM FEW100 09/04 A3017 RMK AO2 SLP168 T00940039
Loading
Personal Weather Stations






























Interactive Weather Map
Tropical Storm Tracking
New forecast layout! Learn more

10-Day Weather Forecast

Advertisements
Track Severe Weather on mobile